Time;durP1;ratioP1;P1;durP2;ratioP2;P2;SDS_P1;SDS_P2;PMS_P1;PMS_P2;Temp;Humidity;BMP_temperature;BMP_pressure;BME280_temperature;BME280_humidity;BME280_pressure;Samples;Min_cycle;Max_cycle;Signal;HPM_P1;HPM_P2
2022/07/21 00:01:55;;;;;;;6.80;3.10;;;;;;;20.12;61.66;100346.50;4181717;28;20238;-74
2022/07/21 00:04:22;;;;;;;10.97;3.40;;;;;;;20.16;61.25;100350.44;4193545;28;20229;-75
2022/07/21 00:06:49;;;;;;;8.57;3.13;;;;;;;20.23;61.23;100356.69;4199146;28;21772;-73
2022/07/21 00:09:16;;;;;;;6.40;2.90;;;;;;;20.18;61.43;100354.59;4204141;28;20233;-74
2022/07/21 00:11:43;;;;;;;6.50;3.10;;;;;;;20.21;61.64;100356.88;4208867;28;20304;-75
2022/07/21 00:14:10;;;;;;;5.83;3.00;;;;;;;20.17;62.02;100350.22;4200044;28;20444;-75
2022/07/21 00:16:38;;;;;;;6.47;3.00;;;;;;;20.13;62.02;100359.78;4202992;28;20236;-73
2022/07/21 00:19:06;;;;;;;5.63;3.00;;;;;;;20.13;62.01;100361.66;4199473;28;20415;-74
2022/07/21 00:21:32;;;;;;;7.73;3.17;;;;;;;20.12;62.14;100360.84;4204257;28;20229;-74
2022/07/21 00:23:59;;;;;;;5.53;3.00;;;;;;;20.07;62.36;100355.22;4214443;28;20237;-74
2022/07/21 00:26:26;;;;;;;5.47;3.00;;;;;;;20.16;62.14;100362.09;4200167;28;21581;-74
2022/07/21 00:28:52;;;;;;;4.97;2.83;;;;;;;20.14;62.25;100364.16;4203103;28;23049;-74
2022/07/21 00:31:20;;;;;;;6.93;3.30;;;;;;;20.06;62.97;100360.84;4212082;28;20430;-74
2022/07/21 00:33:50;;;;;;;5.50;3.00;;;;;;;19.96;63.32;100356.69;4204602;28;20984;-75
2022/07/21 00:36:18;;;;;;;4.73;3.03;;;;;;;19.93;63.77;100353.59;4212232;28;20240;-75
2022/07/21 00:38:45;;;;;;;7.10;3.60;;;;;;;19.96;63.64;100353.16;4209980;28;20251;-73
2022/07/21 00:41:12;;;;;;;5.00;3.20;;;;;;;19.88;63.94;100358.75;4199080;28;20626;-74
2022/07/21 00:43:38;;;;;;;5.63;3.37;;;;;;;19.85;63.81;100359.19;4204141;28;20247;-74
2022/07/21 00:46:05;;;;;;;7.50;3.57;;;;;;;19.85;64.21;100354.59;4205398;28;20632;-75
2022/07/21 00:48:32;;;;;;;7.37;3.60;;;;;;;19.69;65.62;100350.47;4214496;28;20241;-75
2022/07/21 00:50:58;;;;;;;6.70;3.47;;;;;;;19.61;65.89;100345.22;4204557;28;21440;-74
2022/07/21 00:53:25;;;;;;;11.30;3.70;;;;;;;19.61;65.49;100356.03;4187363;28;21179;-73
2022/07/21 00:55:52;;;;;;;6.27;3.47;;;;;;;19.66;65.16;100350.00;4196811;28;23756;-74
2022/07/21 00:58:19;;;;;;;3.83;2.60;;;;;;;19.66;65.49;100355.41;4202832;28;20237;-73
2022/07/21 01:00:46;;;;;;;5.67;3.27;;;;;;;19.67;65.29;100360.59;4197272;28;20240;-73
2022/07/21 01:03:12;;;;;;;9.13;3.67;;;;;;;19.60;65.67;100363.28;4190431;28;20336;-73
2022/07/21 01:05:39;;;;;;;7.40;3.40;;;;;;;19.62;65.54;100360.41;4202435;28;20237;-74
2022/07/21 01:08:06;;;;;;;5.43;3.30;;;;;;;19.59;65.86;100368.88;4203673;28;20579;-73
2022/07/21 01:10:32;;;;;;;6.53;3.10;;;;;;;19.60;65.89;100375.97;4205629;28;20297;-75
2022/07/21 01:13:00;;;;;;;7.67;3.43;;;;;;;19.57;65.89;100379.06;4196018;28;20229;-74
2022/07/21 01:15:27;;;;;;;6.53;3.37;;;;;;;19.51;66.58;100388.00;4190774;28;20267;-74
2022/07/21 01:17:54;;;;;;;8.77;3.60;;;;;;;19.46;66.71;100388.59;4203943;28;20405;-74
2022/07/21 01:20:22;;;;;;;13.50;4.03;;;;;;;19.56;66.50;100393.59;4202289;28;20554;-76
2022/07/21 01:22:50;;;;;;;6.33;3.40;;;;;;;19.51;66.42;100391.53;4189564;28;20245;-74
2022/07/21 01:25:18;;;;;;;6.13;3.20;;;;;;;19.58;66.32;100397.75;4226100;28;20295;-74
2022/07/21 01:27:45;;;;;;;9.30;3.70;;;;;;;19.63;66.21;100399.03;4218708;28;21099;-74
2022/07/21 01:30:12;;;;;;;11.63;3.33;;;;;;;19.49;67.26;100388.19;4190916;28;20619;-73
2022/07/21 01:32:39;;;;;;;9.17;3.80;;;;;;;19.36;67.80;100389.00;4215765;28;20640;-74
2022/07/21 01:35:09;;;;;;;8.27;3.80;;;;;;;19.23;68.67;100383.56;4219327;28;23876;-73
2022/07/21 01:37:38;;;;;;;6.20;3.50;;;;;;;19.21;68.75;100388.31;4199433;28;25167;-73
2022/07/21 01:42:55;;;;;;;9.07;3.87;;;;;;;19.16;69.06;100388.09;4204121;28;20661;-74
2022/07/21 01:45:22;;;;;;;9.63;3.70;;;;;;;19.03;69.52;100393.44;4208463;28;20305;-74
2022/07/21 01:47:49;;;;;;;6.90;3.70;;;;;;;19.01;69.71;100400.91;4203783;28;20235;-74
2022/07/21 01:50:18;;;;;;;8.20;3.60;;;;;;;18.94;70.20;100399.03;4211514;28;20608;-74
2022/07/21 01:52:45;;;;;;;10.50;4.07;;;;;;;18.85;70.45;100397.53;4197992;28;20265;-74
2022/07/21 01:55:12;;;;;;;9.73;3.90;;;;;;;18.82;70.64;100402.47;4201538;28;20350;-73
2022/07/21 01:57:39;;;;;;;8.67;4.23;;;;;;;18.81;70.79;100403.53;4203560;28;20223;-74
2022/07/21 02:00:06;;;;;;;5.17;3.60;;;;;;;18.87;69.98;100395.47;4209491;28;20240;-73
2022/07/21 02:02:33;;;;;;;8.70;4.03;;;;;;;18.68;72.15;100397.00;4216151;28;20381;-73
2022/07/21 02:05:00;;;;;;;10.00;3.93;;;;;;;18.65;72.16;100397.38;4197103;28;22757;-74
2022/07/21 02:07:26;;;;;;;8.40;3.57;;;;;;;18.68;71.82;100409.63;4208550;28;20484;-74
2022/07/21 02:09:53;;;;;;;11.83;4.47;;;;;;;18.61;71.61;100400.66;4203513;28;20236;-73
2022/07/21 02:12:20;;;;;;;7.03;3.63;;;;;;;18.66;70.78;100399.06;4203650;28;20311;-74
2022/07/21 02:14:47;;;;;;;6.83;3.63;;;;;;;18.58;71.23;100395.69;4221428;28;22595;-74
2022/07/21 02:17:13;;;;;;;5.00;3.00;;;;;;;18.60;71.07;100399.84;4203210;28;20238;-73
2022/07/21 02:19:40;;;;;;;8.80;3.80;;;;;;;18.67;70.95;100405.28;4196464;28;22767;-73
2022/07/21 02:22:07;;;;;;;9.57;4.40;;;;;;;18.61;71.91;100401.50;4195702;28;20243;-73
2022/07/21 02:24:34;;;;;;;7.27;3.83;;;;;;;18.62;71.85;100403.19;4181169;28;20307;-72
2022/07/21 02:27:01;;;;;;;8.93;3.93;;;;;;;18.55;71.96;100405.00;4209632;28;20225;-72
2022/07/21 02:29:28;;;;;;;12.00;4.90;;;;;;;18.55;71.31;100405.84;4197826;28;20316;-75
2022/07/21 02:31:55;;;;;;;10.40;4.30;;;;;;;18.58;71.04;100406.47;4207800;28;20782;-74
2022/07/21 02:34:21;;;;;;;10.53;4.43;;;;;;;18.64;71.21;100406.50;4207022;28;20542;-73
2022/07/21 02:36:48;;;;;;;7.40;4.27;;;;;;;18.68;70.64;100413.19;4200926;28;25521;-73
2022/07/21 02:39:15;;;;;;;7.77;4.47;;;;;;;18.67;71.16;100408.81;4218148;28;21416;-74
2022/07/21 02:41:42;;;;;;;10.50;4.60;;;;;;;18.61;70.80;100406.06;4209263;28;21327;-73
2022/07/21 02:44:09;;;;;;;7.00;3.90;;;;;;;18.55;71.60;100405.84;4225795;28;20492;-74
2022/07/21 02:46:36;;;;;;;7.13;4.33;;;;;;;18.58;71.23;100406.47;4207925;28;21020;-74
2022/07/21 02:49:03;;;;;;;8.93;4.60;;;;;;;18.52;71.78;100403.53;4206441;28;20295;-74
2022/07/21 02:51:30;;;;;;;12.53;4.37;;;;;;;18.54;71.86;100398.78;4202064;28;20443;-73
2022/07/21 02:53:57;;;;;;;8.77;4.57;;;;;;;18.51;71.89;100393.78;4214233;28;20230;-73
2022/07/21 02:56:24;;;;;;;10.37;4.60;;;;;;;18.48;71.70;100385.28;4232205;28;20324;-73
2022/07/21 02:58:51;;;;;;;8.50;4.00;;;;;;;18.46;71.67;100385.47;4203690;28;22771;-73
2022/07/21 03:01:18;;;;;;;6.03;4.00;;;;;;;18.54;70.95;100388.00;4209781;28;20243;-75
2022/07/21 03:03:45;;;;;;;6.73;4.23;;;;;;;18.43;71.86;100385.88;4204121;28;20906;-74
2022/07/21 03:06:12;;;;;;;9.10;4.37;;;;;;;18.49;71.74;100387.75;4217227;28;22056;-74
2022/07/21 03:08:39;;;;;;;9.53;4.07;;;;;;;18.44;72.25;100384.81;4229000;28;20291;-72
2022/07/21 03:11:06;;;;;;;7.97;3.73;;;;;;;18.44;71.74;100384.81;4216935;28;22764;-73
2022/07/21 03:13:35;;;;;;;8.83;4.00;;;;;;;18.48;71.65;100390.66;4196982;28;20365;-75
2022/07/21 03:16:01;;;;;;;4.67;3.30;;;;;;;18.52;71.41;100387.38;4205900;28;20489;-73
2022/07/21 03:18:28;;;;;;;7.80;3.70;;;;;;;18.49;72.08;100387.75;4201941;28;20287;-74
2022/07/21 03:20:56;;;;;;;10.03;4.03;;;;;;;18.52;72.06;100379.28;4196611;28;21815;-73
2022/07/21 03:23:23;;;;;;;9.27;4.10;;;;;;;18.55;71.40;100375.34;4195760;28;20241;-74
2022/07/21 03:25:49;;;;;;;13.63;4.20;;;;;;;18.50;71.53;100378.66;4210555;28;20307;-74
2022/07/21 03:28:17;;;;;;;9.47;3.83;;;;;;;18.60;71.37;100382.84;4193552;28;20252;-73
2022/07/21 03:30:43;;;;;;;9.20;4.10;;;;;;;18.65;70.60;100385.78;4224633;28;20241;-73
2022/07/21 03:33:10;;;;;;;8.47;4.17;;;;;;;18.66;70.97;100384.72;4206971;28;21563;-75
2022/07/21 03:35:36;;;;;;;9.37;3.90;;;;;;;18.70;70.45;100383.31;4225315;28;25801;-73
2022/07/21 03:38:04;;;;;;;7.03;3.90;;;;;;;18.85;68.98;100384.03;4210015;28;20263;-73
2022/07/21 03:40:34;;;;;;;9.67;3.40;;;;;;;18.94;68.07;100393.63;4217474;28;20232;-72
2022/07/21 03:43:03;;;;;;;6.37;3.50;;;;;;;19.03;67.81;100393.44;4190792;28;20612;-73
2022/07/21 03:45:31;;;;;;;6.97;4.10;;;;;;;19.13;67.03;100393.91;4216523;28;22926;-74
2022/07/21 03:47:58;;;;;;;8.57;3.83;;;;;;;19.15;66.87;100389.13;4182494;28;20459;-72
2022/07/21 03:50:26;;;;;;;7.50;3.43;;;;;;;19.27;66.13;100390.22;4203621;28;21434;-73
2022/07/21 03:52:53;;;;;;;7.27;3.30;;;;;;;19.33;66.34;100384.00;4190605;28;20291;-73
2022/07/21 03:55:20;;;;;;;9.20;3.80;;;;;;;19.28;67.10;100386.47;4199808;28;21084;-75
2022/07/21 03:57:58;;;;;;;7.40;3.63;;;;;;;19.32;66.54;100390.44;4208242;28;20333;-74
2022/07/21 04:00:26;;;;;;;8.13;3.33;;;;;;;19.39;65.91;100385.06;4200603;28;20468;-74
2022/07/21 04:02:54;;;;;;;9.40;3.57;;;;;;;19.40;65.52;100390.25;4188645;28;20241;-75
2022/07/21 04:05:21;;;;;;;7.93;3.20;;;;;;;19.50;64.91;100397.97;4177319;28;20427;-75
2022/07/21 04:07:49;;;;;;;7.97;3.30;;;;;;;19.61;64.62;100397.34;4198092;28;20240;-73
2022/07/21 04:10:24;;;;;;;10.90;3.60;;;;;;;19.74;64.86;100401.97;4199500;28;21756;-73
2022/07/21 04:12:53;;;;;;;6.10;3.23;;;;;;;19.81;63.99;100405.50;4200007;28;20278;-74
2022/07/21 04:15:20;;;;;;;7.57;3.50;;;;;;;19.91;62.55;100404.28;4199510;28;20298;-75
2022/07/21 04:17:47;;;;;;;10.67;3.60;;;;;;;19.86;63.87;100404.06;4184796;28;20248;-74
2022/07/21 04:20:14;;;;;;;9.30;3.30;;;;;;;19.99;61.84;100407.59;4199673;28;20789;-73
2022/07/21 04:22:42;;;;;;;7.80;3.20;;;;;;;19.89;62.30;100404.47;4212550;28;20225;-73
2022/07/21 04:25:11;;;;;;;5.33;2.97;;;;;;;20.10;60.48;100411.53;4202564;28;20241;-75
2022/07/21 04:27:38;;;;;;;7.23;2.93;;;;;;;20.10;60.28;100422.34;4203322;28;23805;-77
2022/07/21 04:30:06;;;;;;;10.00;3.20;;;;;;;20.15;60.38;100419.84;4201926;28;20309;-73
2022/07/21 04:32:33;;;;;;;8.43;3.30;;;;;;;20.21;60.20;100420.91;4216202;28;20396;-76
2022/07/21 04:35:00;;;;;;;8.87;3.47;;;;;;;20.26;59.47;100422.97;4178235;28;20344;-74
2022/07/21 04:37:27;;;;;;;7.87;2.97;;;;;;;20.40;58.50;100422.75;4195577;28;20233;-75
2022/07/21 04:39:53;;;;;;;8.77;3.33;;;;;;;20.37;58.40;100422.31;4195824;28;25218;-74
2022/07/21 04:42:21;;;;;;;9.83;2.97;;;;;;;20.41;58.26;100424.41;4201343;28;21237;-74
2022/07/21 04:44:47;;;;;;;12.00;3.17;;;;;;;20.48;58.38;100424.38;4194351;28;20260;-73
2022/07/21 04:47:14;;;;;;;10.07;3.10;;;;;;;20.55;57.94;100427.09;4201073;28;20641;-74
2022/07/21 04:49:41;;;;;;;8.30;3.00;;;;;;;20.68;56.98;100423.56;4200333;28;20229;-75
2022/07/21 04:52:08;;;;;;;8.87;3.20;;;;;;;20.76;57.40;100426.84;4200559;28;20233;-74
2022/07/21 04:54:36;;;;;;;7.43;2.70;;;;;;;20.78;57.16;100424.78;4195257;28;20316;-74
2022/07/21 04:57:05;;;;;;;6.87;2.73;;;;;;;20.79;57.20;100422.91;4185735;28;20266;-76
2022/07/21 04:59:33;;;;;;;8.90;3.07;;;;;;;20.84;56.68;100418.53;4217712;28;20319;-73
2022/07/21 05:02:00;;;;;;;3.23;2.47;;;;;;;21.00;54.29;100411.81;4211321;28;20310;-76
2022/07/21 05:04:27;;;;;;;10.50;3.10;;;;;;;21.00;54.96;100406.41;4198782;28;20239;-76
2022/07/21 05:06:54;;;;;;;11.70;3.07;;;;;;;21.16;54.49;100407.78;4199834;28;22105;-73
2022/07/21 05:09:20;;;;;;;6.43;2.77;;;;;;;21.19;54.38;100404.66;4216447;28;20352;-74
2022/07/21 05:11:47;;;;;;;8.00;3.60;;;;;;;21.33;53.35;100410.84;4207435;28;21149;-74
2022/07/21 05:14:14;;;;;;;7.40;3.30;;;;;;;21.38;54.08;100402.88;4206745;28;23525;-74
2022/07/21 05:16:42;;;;;;;6.93;2.80;;;;;;;21.42;52.32;100409.56;4206387;28;22752;-74
2022/07/21 05:19:08;;;;;;;9.57;2.70;;;;;;;21.47;51.51;100409.75;4194100;28;20437;-74
2022/07/21 05:21:35;;;;;;;9.40;2.50;;;;;;;21.47;50.24;100412.44;4179170;28;21785;-74
2022/07/21 05:24:03;;;;;;;8.63;2.47;;;;;;;21.50;49.60;100417.41;4198071;28;20315;-73
2022/07/21 05:26:30;;;;;;;9.03;2.23;;;;;;;21.70;48.51;100414.59;4165525;28;20237;-74
2022/07/21 05:28:56;;;;;;;6.90;2.23;;;;;;;21.62;48.59;100422.16;4213568;28;20238;-75
2022/07/21 05:31:23;;;;;;;7.50;2.30;;;;;;;21.69;47.98;100426.47;4214763;28;26312;-75
2022/07/21 05:33:50;;;;;;;5.37;2.00;;;;;;;21.61;47.87;100429.44;4210856;28;20332;-74
2022/07/21 05:36:18;;;;;;;7.73;2.23;;;;;;;21.77;47.65;100429.97;4208732;28;25195;-73
2022/07/21 05:38:46;;;;;;;10.23;2.37;;;;;;;21.96;47.46;100422.72;4210741;28;21230;-73
2022/07/21 05:41:13;;;;;;;5.77;2.20;;;;;;;22.36;47.79;100425.13;4263141;28;20492;-75
2022/07/21 05:43:40;;;;;;;5.93;2.33;;;;;;;22.73;45.35;100435.00;4214607;28;23005;-74
2022/07/21 05:46:06;;;;;;;7.30;2.50;;;;;;;23.18;44.67;100434.72;4235474;28;20276;-75
2022/07/21 05:48:33;;;;;;;7.40;2.17;;;;;;;23.75;42.55;100434.38;4204969;28;20529;-75
2022/07/21 05:51:00;;;;;;;10.20;5.40;;;;;;;23.86;42.34;100446.34;4211993;28;20423;-74
2022/07/21 05:53:27;;;;;;;8.50;2.37;;;;;;;24.55;41.09;100449.41;4223954;28;20351;-74
2022/07/21 05:55:54;;;;;;;5.97;1.97;;;;;;;25.11;39.35;100447.06;4203923;28;23152;-74
2022/07/21 05:58:24;;;;;;;8.50;2.40;;;;;;;25.86;37.34;100447.97;4207677;28;21467;-75
2022/07/21 06:01:13;;;;;;;4.20;1.87;;;;;;;26.06;35.84;100453.00;4199494;28;22336;-73
2022/07/21 06:03:42;;;;;;;10.27;2.50;;;;;;;26.49;34.73;100451.47;4210921;28;20231;-74
2022/07/21 06:06:18;;;;;;;7.53;2.17;;;;;;;27.09;33.60;100455.31;4203580;28;21186;-72
2022/07/21 06:08:47;;;;;;;6.60;2.17;;;;;;;27.29;33.14;100454.78;4204368;28;20331;-73
2022/07/21 06:11:16;;;;;;;5.53;1.93;;;;;;;27.70;32.23;100455.25;4202054;28;20320;-74
2022/07/21 06:13:43;;;;;;;5.93;2.20;;;;;;;28.04;31.77;100442.16;4208021;28;21652;-75
2022/07/21 06:16:10;;;;;;;5.47;1.90;;;;;;;27.99;31.74;100459.34;4212597;28;21352;-74
2022/07/21 06:18:37;;;;;;;6.43;1.87;;;;;;;28.73;30.70;100457.75;4209974;28;20237;-73
2022/07/21 06:21:17;;;;;;;7.00;2.03;;;;;;;29.41;29.50;100455.03;4199025;28;20239;-73
2022/07/21 06:23:44;;;;;;;14.25;2.08;;;;;;;29.54;28.69;100450.94;4205977;28;20228;-74
2022/07/21 06:26:11;;;;;;;9.68;2.20;;;;;;;30.12;28.55;100449.94;4215391;28;20260;-75
2022/07/21 06:28:37;;;;;;;9.10;2.03;;;;;;;30.82;26.78;100453.69;4208305;28;20376;-73
2022/07/21 06:31:04;;;;;;;8.55;2.28;;;;;;;31.30;26.48;100464.22;4207045;28;21199;-74
2022/07/21 06:33:31;;;;;;;6.88;1.67;;;;;;;31.58;26.01;100459.16;4203021;28;20305;-74
2022/07/21 06:35:58;;;;;;;3.53;1.70;;;;;;;31.37;26.07;100456.50;4214741;28;20237;-72
2022/07/21 06:38:24;;;;;;;6.78;1.67;;;;;;;31.51;25.25;100459.47;4207809;28;20457;-74
2022/07/21 06:40:51;;;;;;;6.90;1.75;;;;;;;31.61;25.41;100459.44;4210934;28;21412;-73
2022/07/21 06:43:18;;;;;;;4.30;1.60;;;;;;;32.23;24.22;100461.72;4213208;28;20238;-74
2022/07/21 06:45:56;;;;;;;6.65;1.85;;;;;;;32.74;24.34;100467.56;4209051;28;29186;-75
2022/07/21 06:48:24;;;;;;;5.35;1.85;;;;;;;32.90;23.38;100475.69;4207331;28;21232;-74
2022/07/21 06:50:52;;;;;;;5.57;1.45;;;;;;;33.47;22.85;100475.81;4211778;28;20422;-74
2022/07/21 06:53:19;;;;;;;12.98;1.98;;;;;;;33.93;21.77;100489.78;4215938;28;20445;-75
2022/07/21 06:55:47;;;;;;;4.82;1.63;;;;;;;33.26;22.13;100480.78;4198643;28;20341;-74
2022/07/21 06:58:18;;;;;;;3.00;1.58;;;;;;;32.82;22.45;100476.31;4203854;28;20300;-73
2022/07/21 07:00:45;;;;;;;6.07;1.70;;;;;;;32.27;23.17;100474.63;4206034;28;20241;-75
2022/07/21 07:03:13;;;;;;;4.20;1.52;;;;;;;32.78;22.76;100479.66;4204409;28;20501;-76
2022/07/21 07:05:40;;;;;;;3.70;1.85;;;;;;;33.31;21.68;100477.94;4198300;28;21155;-73
2022/07/21 07:08:07;;;;;;;4.28;1.48;;;;;;;32.42;22.99;100473.66;4211410;28;21193;-74
2022/07/21 07:10:37;;;;;;;4.18;1.75;;;;;;;32.93;22.43;100480.59;4203724;28;21154;-73
2022/07/21 07:13:04;;;;;;;5.97;1.70;;;;;;;32.74;22.20;100481.34;4216739;28;20238;-73
2022/07/21 07:15:50;;;;;;;5.45;1.70;;;;;;;32.80;22.36;100488.47;4212800;28;20385;-73
2022/07/21 07:18:20;;;;;;;3.63;1.40;;;;;;;34.21;21.07;100487.97;4205714;28;20343;-74
2022/07/21 07:20:46;;;;;;;5.75;1.95;;;;;;;34.71;20.44;100490.13;4208719;28;20746;-74
2022/07/21 07:23:13;;;;;;;7.45;2.28;;;;;;;34.72;20.23;100483.47;4196316;28;20295;-73
2022/07/21 07:25:43;;;;;;;5.90;1.90;;;;;;;34.14;20.53;100495.81;4215204;28;20250;-73
2022/07/21 07:28:09;;;;;;;7.53;1.85;;;;;;;34.22;20.43;100503.41;4192191;28;20233;-74
2022/07/21 07:30:36;;;;;;;3.75;1.67;;;;;;;33.06;21.94;100507.50;4202697;28;20244;-75
2022/07/21 07:33:03;;;;;;;4.45;1.63;;;;;;;32.03;23.38;100482.84;4205604;28;20774;-73
2022/07/21 07:35:29;;;;;;;5.63;1.80;;;;;;;32.49;23.00;100490.66;4196755;28;20343;-74
2022/07/21 07:37:56;;;;;;;2.95;1.52;;;;;;;32.05;23.69;100499.03;4225911;28;20237;-74
2022/07/21 07:40:23;;;;;;;5.78;1.90;;;;;;;31.94;24.13;100496.34;4223967;28;20239;-74
2022/07/21 07:42:50;;;;;;;5.32;2.10;;;;;;;31.90;24.97;100489.75;4216043;28;25857;-74
2022/07/21 07:45:17;;;;;;;4.82;1.83;;;;;;;31.37;24.74;100489.50;4194253;28;21115;-75
2022/07/21 07:47:44;;;;;;;7.55;1.95;;;;;;;30.84;25.11;100484.50;4207947;28;20230;-74
2022/07/21 07:50:13;;;;;;;5.07;1.90;;;;;;;30.37;26.59;100484.81;4215774;28;20351;-74
2022/07/21 07:52:41;;;;;;;6.63;1.83;;;;;;;30.56;27.54;100488.66;4212507;28;20684;-75
2022/07/21 07:55:10;;;;;;;6.00;1.80;;;;;;;30.63;26.57;100478.19;4220011;28;20239;-74
2022/07/21 07:57:42;;;;;;;6.35;1.95;;;;;;;30.60;26.68;100487.00;4207801;28;20237;-74
2022/07/21 08:00:15;;;;;;;7.28;2.25;;;;;;;30.88;26.05;100476.50;4227666;28;22222;-74
2022/07/21 08:03:01;;;;;;;6.20;2.00;;;;;;;30.56;26.51;100474.91;4223309;28;20232;-74
2022/07/21 08:05:28;;;;;;;4.10;1.88;;;;;;;30.43;26.57;100472.72;4200373;28;20389;-74
2022/07/21 08:07:55;;;;;;;5.88;2.15;;;;;;;30.51;26.29;100469.44;4229447;28;22175;-74
2022/07/21 08:10:21;;;;;;;5.13;2.03;;;;;;;30.66;26.56;100458.41;4203900;28;21119;-75
2022/07/21 08:13:08;;;;;;;5.93;1.95;;;;;;;30.66;27.04;100460.31;4224107;28;22806;-75
2022/07/21 08:15:35;;;;;;;5.68;1.90;;;;;;;30.45;26.37;100456.78;4213676;28;20318;-73
2022/07/21 08:18:03;;;;;;;8.73;2.00;;;;;;;29.95;26.92;100459.28;4213373;28;20298;-75
2022/07/21 08:20:30;;;;;;;3.25;1.45;;;;;;;30.29;25.76;100464.22;4207021;28;20233;-74
2022/07/21 08:22:56;;;;;;;3.75;1.70;;;;;;;29.92;25.79;100459.78;4208406;28;20233;-77
2022/07/21 08:25:24;;;;;;;5.68;1.50;;;;;;;29.61;26.56;100450.69;4216461;28;20607;-73
2022/07/21 08:27:50;;;;;;;6.95;1.50;;;;;;;29.64;27.03;100447.38;4201406;28;22177;-73
2022/07/21 08:30:19;;;;;;;4.30;1.58;;;;;;;29.22;27.25;100442.91;4204654;28;21955;-74
2022/07/21 08:32:51;;;;;;;5.18;1.55;;;;;;;29.12;27.63;100437.38;4207751;28;20260;-73
2022/07/21 08:35:17;;;;;;;7.32;3.47;;;;;;;29.67;27.03;100435.94;4233992;28;25330;-75
2022/07/21 08:37:56;;;;;;;7.30;2.10;;;;;;;29.74;26.70;100433.75;4204921;28;20271;-74
2022/07/21 08:40:24;;;;;;;4.60;1.23;;;;;;;29.66;25.53;100447.94;4224478;28;21434;-75
2022/07/21 08:42:52;;;;;;;4.95;1.85;;;;;;;29.21;26.75;100444.00;4203759;28;20278;-74
2022/07/21 08:45:19;;;;;;;4.25;1.45;;;;;;;29.48;26.38;100459.41;4213490;28;20241;-74
2022/07/21 08:47:46;;;;;;;8.23;1.55;;;;;;;29.35;26.55;100456.09;4204727;28;20295;-76
2022/07/21 08:50:16;;;;;;;3.08;1.65;;;;;;;29.28;26.18;100458.28;4193037;28;20309;-74
2022/07/21 08:52:42;;;;;;;5.80;1.70;;;;;;;29.69;26.71;100455.69;4208721;28;20251;-75
2022/07/21 08:55:09;;;;;;;4.22;1.50;;;;;;;29.92;26.28;100456.25;4214892;28;20245;-75
2022/07/21 08:57:39;;;;;;;3.35;1.55;;;;;;;29.66;25.97;100461.66;4192828;28;20233;-75
2022/07/21 09:00:08;;;;;;;4.75;1.42;;;;;;;29.34;26.77;100456.41;4207551;28;21188;-74
2022/07/21 09:02:39;;;;;;;3.97;1.58;;;;;;;29.33;27.24;100458.28;4218949;28;21584;-75
2022/07/21 09:05:08;;;;;;;4.55;1.40;;;;;;;29.37;26.26;100462.16;4222087;28;20284;-73
2022/07/21 09:07:57;;;;;;;5.95;1.20;;;;;;;29.58;25.49;100465.75;4221395;28;20264;-74
2022/07/21 09:10:26;;;;;;;5.35;1.48;;;;;;;29.85;25.48;100473.81;4212118;28;20306;-74
2022/07/21 09:13:03;;;;;;;9.02;1.50;;;;;;;28.96;26.71;100461.13;4198246;28;20240;-75
2022/07/21 09:15:31;;;;;;;5.80;1.58;;;;;;;28.99;27.39;100455.13;4209438;28;20307;-74
2022/07/21 09:18:03;;;;;;;4.75;2.13;;;;;;;28.46;28.56;100437.81;4215372;28;20244;-76
2022/07/21 09:20:39;;;;;;;8.00;1.60;;;;;;;28.51;27.79;100435.97;4197081;28;21667;-74
2022/07/21 09:23:07;;;;;;;6.65;1.63;;;;;;;28.74;28.68;100445.69;4202016;28;20456;-74
2022/07/21 09:25:41;;;;;;;10.17;1.77;;;;;;;28.78;27.24;100435.03;4207789;28;22441;-75
2022/07/21 09:28:13;;;;;;;12.20;2.20;;;;;;;28.77;27.89;100428.72;4205739;28;21965;-75
2022/07/21 09:30:57;;;;;;;8.02;1.70;;;;;;;28.84;28.93;100431.22;4192379;28;20831;-74
2022/07/21 09:33:31;;;;;;;4.43;1.52;;;;;;;29.19;28.47;100427.00;4199100;28;20287;-73
2022/07/21 09:36:08;;;;;;;4.15;1.50;;;;;;;29.57;27.58;100433.97;4217125;28;20239;-74
2022/07/21 09:38:37;;;;;;;4.55;1.58;;;;;;;29.44;26.72;100423.50;4211211;28;20446;-76
2022/07/21 09:41:06;;;;;;;1.48;1.30;;;;;;;29.64;25.90;100429.03;4191828;28;20272;-74
2022/07/21 09:43:44;;;;;;;6.95;1.48;;;;;;;29.56;26.40;100426.00;4211847;28;20316;-74
2022/07/21 09:46:21;;;;;;;6.90;1.52;;;;;;;29.20;26.76;100423.19;4215993;28;22198;-75
2022/07/21 09:48:51;;;;;;;7.20;2.15;;;;;;;29.24;27.71;100418.78;4211482;28;20236;-74
2022/07/21 09:51:39;;;;;;;6.60;1.80;;;;;;;29.39;27.45;100426.25;4210829;28;20659;-76
2022/07/21 09:54:08;;;;;;;4.32;1.30;;;;;;;29.33;27.24;100424.56;4213054;28;20664;-74
2022/07/21 09:56:37;;;;;;;9.05;1.70;;;;;;;29.30;28.29;100423.19;4203230;28;22151;-73
2022/07/21 09:59:06;;;;;;;7.55;1.85;;;;;;;29.51;28.97;100415.03;4199394;28;20236;-75
2022/07/21 10:01:33;;;;;;;4.65;1.80;;;;;;;29.20;29.25;100414.97;4227168;28;20287;-74
2022/07/21 10:04:00;;;;;;;3.92;1.40;;;;;;;28.78;29.83;100416.69;4216880;28;20244;-73
2022/07/21 10:06:31;;;;;;;4.07;1.53;;;;;;;28.17;30.48;100411.63;4193556;28;20604;-74
2022/07/21 10:08:59;;;;;;;5.43;1.48;;;;;;;28.37;30.08;100408.19;4224980;28;22709;-76
2022/07/21 10:11:26;;;;;;;5.25;1.40;;;;;;;28.70;28.83;100416.34;4215149;28;20240;-74
2022/07/21 10:13:56;;;;;;;6.55;1.60;;;;;;;28.95;28.27;100427.44;4204723;28;20232;-74
2022/07/21 10:16:23;;;;;;;5.55;1.73;;;;;;;28.91;27.90;100422.75;4199893;28;20683;-74
2022/07/21 10:19:10;;;;;;;3.78;1.30;;;;;;;29.12;28.32;100420.94;4196848;28;21807;-74
2022/07/21 10:21:49;;;;;;;5.28;1.30;;;;;;;29.16;27.38;100420.13;4196601;28;20423;-75
2022/07/21 10:24:16;;;;;;;4.55;1.50;;;;;;;28.98;27.66;100415.91;4210222;28;20472;-74
2022/07/21 10:27:04;;;;;;;4.68;1.70;;;;;;;28.62;27.75;100413.03;4193159;28;22929;-74
2022/07/21 10:29:54;;;;;;;4.93;1.88;;;;;;;28.50;28.70;100409.69;4202248;28;21985;-74
2022/07/21 10:32:35;;;;;;;6.65;1.67;;;;;;;28.31;29.92;100400.22;4225131;28;20248;-74
2022/07/21 10:35:26;;;;;;;5.00;2.20;;;;;;;28.39;29.95;100394.25;4192040;28;21757;-75
2022/07/21 10:37:53;;;;;;;5.25;1.63;;;;;;;28.64;29.74;100395.53;4199313;28;22287;-75
2022/07/21 10:40:19;;;;;;;3.75;1.35;;;;;;;28.71;27.87;100391.44;4214615;28;20276;-74
2022/07/21 10:43:01;;;;;;;4.15;1.63;;;;;;;28.76;27.95;100387.91;4232969;28;20239;-74
2022/07/21 10:45:34;;;;;;;5.57;1.63;;;;;;;28.60;29.64;100389.75;4216728;28;20534;-75
2022/07/21 10:48:03;;;;;;;5.95;1.73;;;;;;;28.74;30.60;100387.34;4237046;28;20244;-73
2022/07/21 10:50:40;;;;;;;8.10;2.03;;;;;;;28.73;29.08;100386.53;4212565;28;20287;-74
2022/07/21 10:53:17;;;;;;;8.13;1.70;;;;;;;28.82;28.11;100384.09;4206137;28;20245;-74
2022/07/21 10:55:54;;;;;;;6.68;1.60;;;;;;;28.74;30.08;100382.69;4217197;28;20233;-74
2022/07/21 10:58:41;;;;;;;8.32;1.70;;;;;;;28.87;29.68;100375.91;4205391;28;20800;-74
2022/07/21 11:01:14;;;;;;;7.97;1.60;;;;;;;28.89;30.54;100373.69;4205557;28;20230;-75
2022/07/21 11:04:19;;;;;;;9.57;1.97;;;;;;;29.14;30.46;100366.69;4231555;28;20707;-74
2022/07/21 11:06:46;;;;;;;11.38;1.70;;;;;;;29.34;28.63;100371.41;4220052;28;20554;-74
2022/07/21 11:09:15;;;;;;;6.95;1.40;;;;;;;29.15;29.38;100368.31;4210830;28;22110;-74
2022/07/21 11:12:03;;;;;;;10.40;1.88;;;;;;;28.99;28.22;100373.75;4215980;28;20406;-75
2022/07/21 11:14:41;;;;;;;9.50;1.80;;;;;;;29.24;27.27;100369.44;4212885;28;20802;-74
2022/07/21 11:17:25;;;;;;;3.67;1.73;;;;;;;29.25;27.78;100368.38;4214072;28;20240;-74
2022/07/21 11:19:52;;;;;;;4.30;1.75;;;;;;;29.21;27.22;100370.00;4211064;28;20237;-74
2022/07/21 11:22:26;;;;;;;2.55;1.70;;;;;;;29.26;29.15;100370.00;4214089;28;20239;-72
2022/07/21 11:25:00;;;;;;;6.22;1.55;;;;;;;29.36;27.79;100370.03;4209838;28;22867;-74
2022/07/21 11:27:30;;;;;;;6.43;1.90;;;;;;;29.43;26.85;100362.38;4215688;28;21168;-75
2022/07/21 11:29:59;;;;;;;5.57;1.65;;;;;;;29.35;27.15;100362.91;4204468;28;21155;-73
2022/07/21 11:32:26;;;;;;;6.00;1.50;;;;;;;29.51;26.48;100363.75;4230292;28;21734;-75
2022/07/21 11:34:56;;;;;;;7.95;1.83;;;;;;;29.61;27.55;100352.78;4206789;28;20707;-74
2022/07/21 11:37:38;;;;;;;9.32;1.73;;;;;;;29.76;26.84;100359.38;4225628;28;20592;-74